Time;durP1;ratioP1;P1;durP2;ratioP2;P2;SDS_P1;SDS_P2;PMS_P1;PMS_P2;Temp;Humidity;BMP_temperature;BMP_pressure;BME280_temperature;BME280_humidity;BME280_pressure;Samples;Min_cycle;Max_cycle;Signal;HPM_P1;HPM_P2
2024/04/06 00:01:33;;;;;;;5.72;1.83;;;;;;;11.55;61.17;99802.53;4929325;28;20057;-92
2024/04/06 00:03:59;;;;;;;6.88;2.30;;;;;;;11.62;61.66;99813.88;4928883;28;20027;-92
2024/04/06 00:06:24;;;;;;;4.47;1.70;;;;;;;11.57;61.88;99814.69;4961030;28;20459;-91
2024/04/06 00:08:52;;;;;;;6.03;1.95;;;;;;;11.47;61.94;99803.84;4930251;28;20030;-91
2024/04/06 00:11:18;;;;;;;7.40;1.75;;;;;;;11.50;61.53;99814.13;4929678;28;20027;-91
2024/04/06 00:13:43;;;;;;;4.00;1.70;;;;;;;11.27;62.09;99802.69;4956347;28;20030;-91
2024/04/06 00:16:10;;;;;;;5.68;1.95;;;;;;;11.31;62.60;99803.78;4938748;28;20161;-93
2024/04/06 00:18:36;;;;;;;7.22;2.00;;;;;;;11.27;62.53;99797.31;4944605;28;20027;-91
2024/04/06 00:21:02;;;;;;;5.57;2.00;;;;;;;11.22;62.76;99813.44;4929195;28;20041;-92
2024/04/06 00:23:28;;;;;;;6.47;2.38;;;;;;;11.11;62.96;99796.41;4928535;28;20518;-92
2024/04/06 00:25:54;;;;;;;5.78;2.60;;;;;;;11.27;62.95;99818.06;4928925;28;20027;-92
2024/04/06 00:28:20;;;;;;;6.53;2.97;;;;;;;11.13;63.13;99813.13;4929497;28;20045;-92
2024/04/06 00:30:45;;;;;;;8.18;3.50;;;;;;;11.02;63.10;99797.97;4929160;28;20057;-90
2024/04/06 00:33:12;;;;;;;9.07;3.50;;;;;;;10.97;63.50;99797.13;4945367;28;20066;-91
2024/04/06 00:35:38;;;;;;;7.57;3.38;;;;;;;10.95;63.12;99789.31;4960556;28;20093;-91
2024/04/06 00:38:04;;;;;;;12.13;3.90;;;;;;;10.98;63.29;99799.56;4938422;28;20091;-91
2024/04/06 00:40:30;;;;;;;9.77;3.55;;;;;;;11.06;63.53;99817.94;4933461;28;20465;-92
2024/04/06 00:42:55;;;;;;;9.90;3.55;;;;;;;10.88;63.72;99800.31;4965446;28;20030;-92
2024/04/06 00:45:21;;;;;;;6.70;3.42;;;;;;;10.91;63.42;99799.81;4964564;28;20026;-91
2024/04/06 00:47:47;;;;;;;7.80;3.30;;;;;;;10.95;63.88;99801.97;4956613;29;20038;-92
2024/04/06 00:50:12;;;;;;;6.07;3.20;;;;;;;11.00;63.96;99808.22;4942880;28;20066;-92
2024/04/06 00:52:38;;;;;;;7.88;3.05;;;;;;;11.02;63.50;99799.84;4930947;28;20066;-92
2024/04/06 00:55:04;;;;;;;6.00;3.45;;;;;;;10.97;63.84;99797.13;4946741;28;20121;-92
2024/04/06 00:57:30;;;;;;;9.48;3.38;;;;;;;10.89;63.92;99791.19;4947614;28;20460;-92
2024/04/06 00:59:56;;;;;;;7.60;3.42;;;;;;;10.81;64.09;99785.44;4947613;28;20030;-92
2024/04/06 01:02:24;;;;;;;15.07;3.22;;;;;;;10.70;63.86;99768.41;4947653;28;20042;-91
2024/04/06 01:04:50;;;;;;;15.57;3.90;;;;;;;10.67;64.43;99764.34;4964938;28;20022;-91
2024/04/06 01:07:16;;;;;;;8.18;3.10;;;;;;;10.57;64.77;99768.88;4947051;28;20034;-92
2024/04/06 01:09:41;;;;;;;9.75;3.10;;;;;;;10.41;65.03;99762.56;4948385;28;20037;-91
2024/04/06 01:12:07;;;;;;;8.43;4.93;;;;;;;10.53;65.18;99782.03;4964447;28;20030;-93
2024/04/06 01:14:33;;;;;;;7.28;3.10;;;;;;;10.42;65.17;99766.88;4962885;28;20032;-92
2024/04/06 01:17:01;;;;;;;6.30;3.42;;;;;;;10.29;65.18;99752.78;4946832;28;20026;-91
2024/04/06 01:19:27;;;;;;;17.05;3.80;;;;;;;10.51;65.68;99793.03;4948259;28;20026;-91
2024/04/06 01:21:52;;;;;;;8.93;3.80;;;;;;;10.31;65.33;99764.09;4963943;28;20033;-92
2024/04/06 01:24:28;;;;;;;10.13;3.55;;;;;;;10.41;65.66;99781.41;4941052;29;20082;-91
2024/04/06 01:26:54;;;;;;;12.40;3.85;;;;;;;10.34;65.57;99770.84;4944810;28;20086;-91
2024/04/06 01:29:21;;;;;;;8.40;4.53;;;;;;;10.45;65.50;99787.88;4959527;28;20022;-91
2024/04/06 01:31:47;;;;;;;6.47;4.28;;;;;;;10.38;65.68;99785.41;4958566;28;20073;-92
2024/04/06 01:34:12;;;;;;;7.75;3.97;;;;;;;10.31;65.52;99777.56;4942879;28;20054;-91
2024/04/06 01:36:39;;;;;;;9.80;3.90;;;;;;;10.39;64.83;99772.75;4899407;29;20039;-91
2024/04/06 01:39:05;;;;;;;6.95;3.63;;;;;;;10.53;64.73;99779.34;4939205;29;20023;-92
2024/04/06 01:41:31;;;;;;;8.63;2.92;;;;;;;10.64;62.96;99767.56;4917633;29;20138;-92
2024/04/06 01:43:56;;;;;;;8.10;3.08;;;;;;;10.75;62.08;99764.94;4939213;28;20109;-92
2024/04/06 01:46:23;;;;;;;5.53;2.70;;;;;;;10.86;60.90;99772.81;4946332;29;20034;-92
2024/04/06 01:48:48;;;;;;;4.53;2.40;;;;;;;10.90;60.43;99773.94;4905304;29;20023;-92
2024/04/06 01:51:14;;;;;;;4.40;2.50;;;;;;;10.96;60.12;99773.94;4921484;29;20062;-91
2024/04/06 01:53:41;;;;;;;5.10;2.58;;;;;;;10.98;59.76;99772.63;4920809;29;20039;-93
2024/04/06 01:56:07;;;;;;;4.88;2.42;;;;;;;11.13;59.31;99788.06;4928740;28;20058;-91
2024/04/06 01:58:32;;;;;;;3.92;2.00;;;;;;;10.97;58.74;99767.50;4950520;28;20125;-92
2024/04/06 02:00:58;;;;;;;4.30;2.20;;;;;;;10.99;58.96;99779.63;4942463;28;20489;-92
2024/04/06 02:03:23;;;;;;;3.65;2.08;;;;;;;10.96;58.83;99773.94;4960141;28;20035;-91
2024/04/06 02:05:50;;;;;;;7.90;2.42;;;;;;;10.80;59.05;99776.56;4937153;29;20023;-92
2024/04/06 02:08:17;;;;;;;5.63;2.40;;;;;;;10.83;59.57;99778.75;4940242;29;20039;-91
2024/04/06 02:10:43;;;;;;;5.28;2.70;;;;;;;10.77;59.68;99777.09;4923867;29;20387;-92
2024/04/06 02:13:08;;;;;;;3.80;2.28;;;;;;;10.83;59.42;99784.13;4940588;29;20082;-92
2024/04/06 02:15:36;;;;;;;4.07;2.08;;;;;;;10.86;59.56;99780.09;4940913;29;20126;-91
2024/04/06 02:18:02;;;;;;;7.70;2.42;;;;;;;10.76;59.79;99780.84;4925477;29;20082;-91
2024/04/06 02:20:27;;;;;;;4.10;2.35;;;;;;;10.81;60.01;99794.34;4923246;29;20019;-90
2024/04/06 02:22:53;;;;;;;5.28;2.70;;;;;;;10.70;62.00;99785.38;4928058;28;20066;-91
2024/04/06 02:25:18;;;;;;;8.15;2.85;;;;;;;10.59;62.42;99774.81;4944210;28;20019;-91
2024/04/06 02:27:45;;;;;;;11.40;3.33;;;;;;;10.60;62.48;99776.41;4968319;28;20030;-92
2024/04/06 02:30:14;;;;;;;6.90;2.92;;;;;;;10.68;62.67;99795.59;4959410;28;20106;-92
2024/04/06 02:32:39;;;;;;;4.65;2.50;;;;;;;10.41;62.55;99766.03;4954068;28;20041;-92
2024/04/06 02:35:12;;;;;;;9.05;2.67;;;;;;;10.52;62.65;99791.16;4946455;28;20109;-92
2024/04/06 02:37:38;;;;;;;6.70;2.85;;;;;;;10.49;63.39;99797.88;4942067;28;20030;-91
2024/04/06 02:40:06;;;;;;;5.72;2.92;;;;;;;10.31;63.99;99782.94;4953058;28;20060;-91
2024/04/06 02:42:31;;;;;;;8.35;3.90;;;;;;;10.27;64.25;99781.81;4930005;28;20125;-92
2024/04/06 02:44:57;;;;;;;7.80;4.43;;;;;;;10.14;64.70;99789.47;4947069;28;20117;-92
2024/04/06 02:47:22;;;;;;;10.68;4.93;;;;;;;10.19;64.48;99786.81;4930296;28;20027;-91
2024/04/06 02:49:48;;;;;;;7.95;4.18;;;;;;;10.10;64.49;99781.09;4931956;28;20113;-92
2024/04/06 02:52:14;;;;;;;9.50;3.97;;;;;;;10.20;64.19;99777.69;4936920;28;20022;-91
2024/04/06 02:54:39;;;;;;;7.63;3.70;;;;;;;10.11;64.27;99761.22;4950726;28;20404;-91
2024/04/06 02:57:05;;;;;;;6.45;4.05;;;;;;;10.30;63.92;99785.88;4966105;28;20037;-92
2024/04/06 02:59:31;;;;;;;7.25;2.88;;;;;;;10.24;64.25;99786.88;4966303;28;20476;-91
2024/04/06 03:01:57;;;;;;;5.55;2.25;;;;;;;10.39;63.84;99789.72;4951272;28;20040;-91
2024/04/06 03:04:23;;;;;;;3.78;2.53;;;;;;;10.41;63.14;99782.19;4972614;28;20022;-90
2024/04/06 03:06:49;;;;;;;2.92;1.80;;;;;;;10.58;61.89;99797.41;4957341;28;20113;-92
2024/04/06 03:09:15;;;;;;;4.40;2.50;;;;;;;10.62;61.30;99787.75;4963832;28;20074;-92
2024/04/06 03:11:42;;;;;;;4.75;1.90;;;;;;;10.64;60.75;99778.31;4961218;28;20034;-91
2024/04/06 03:14:08;;;;;;;4.22;2.13;;;;;;;10.71;59.94;99778.13;4950397;28;20528;-92
2024/04/06 03:16:34;;;;;;;3.92;1.90;;;;;;;10.89;59.60;99798.44;4954844;28;20035;-93
2024/04/06 03:18:59;;;;;;;3.85;1.90;;;;;;;10.81;59.31;99772.81;4960535;28;20096;-91
2024/04/06 03:21:25;;;;;;;4.07;2.00;;;;;;;10.84;59.10;99787.63;4965715;28;20041;-92
2024/04/06 03:23:52;;;;;;;3.08;1.85;;;;;;;10.79;59.56;99772.25;4965467;28;20061;-92
2024/04/06 03:26:18;;;;;;;5.43;2.45;;;;;;;10.65;60.52;99771.09;4965457;28;20061;-91
2024/04/06 03:28:43;;;;;;;5.78;2.20;;;;;;;10.62;60.73;99766.19;5000053;28;20053;-91
2024/04/06 03:31:09;;;;;;;7.30;1.98;;;;;;;10.55;61.28;99771.81;4948937;28;20033;-92
2024/04/06 03:33:34;;;;;;;8.07;2.10;;;;;;;10.43;61.48;99766.59;4949817;28;20030;-93
2024/04/06 03:36:00;;;;;;;4.75;1.90;;;;;;;10.46;61.34;99776.06;4949786;28;20088;-92
2024/04/06 03:38:26;;;;;;;5.35;2.53;;;;;;;10.36;61.73;99776.78;4949605;28;20037;-91
2024/04/06 03:40:51;;;;;;;8.93;2.45;;;;;;;10.39;61.64;99780.84;4964321;28;20034;-92
2024/04/06 03:43:17;;;;;;;8.77;2.53;;;;;;;10.45;61.72;99798.66;4948050;28;20153;-92
2024/04/06 03:45:43;;;;;;;8.00;3.10;;;;;;;10.31;61.92;99785.63;4949804;28;20026;-91
2024/04/06 03:48:09;;;;;;;8.50;2.90;;;;;;;10.13;61.92;99775.22;4950340;28;20031;-91
2024/04/06 03:50:35;;;;;;;5.82;3.03;;;;;;;10.29;61.46;99790.47;4949398;28;20413;-91
2024/04/06 03:53:02;;;;;;;5.35;2.53;;;;;;;10.32;61.46;99787.25;4943680;28;20022;-92
2024/04/06 03:55:27;;;;;;;6.72;2.80;;;;;;;10.24;61.88;99781.50;4944673;28;20408;-93
2024/04/06 03:57:53;;;;;;;5.55;3.00;;;;;;;10.30;61.86;99793.97;4949961;28;20030;-92
2024/04/06 04:00:20;;;;;;;8.00;2.83;;;;;;;10.03;62.91;99775.13;4949438;28;20057;-92
2024/04/06 04:02:45;;;;;;;8.27;3.05;;;;;;;10.03;62.92;99797.44;4949441;28;20050;-93
2024/04/06 04:05:11;;;;;;;9.38;4.22;;;;;;;9.93;63.92;99793.84;4965392;28;20112;-92
2024/04/06 04:07:39;;;;;;;5.22;2.60;;;;;;;9.81;64.13;99783.22;4949041;28;20038;-93
2024/04/06 04:10:06;;;;;;;7.55;2.85;;;;;;;9.83;64.47;99800.72;4997282;28;20030;-93
2024/04/06 04:12:33;;;;;;;13.13;3.20;;;;;;;9.81;64.51;99805.56;4965394;28;20473;-92
2024/04/06 04:15:06;;;;;;;8.38;3.00;;;;;;;9.74;64.93;99804.94;4964086;28;20046;-92
2024/04/06 04:17:32;;;;;;;8.00;3.17;;;;;;;9.70;64.98;99809.22;4965492;28;20023;-92
2024/04/06 04:20:01;;;;;;;9.00;3.15;;;;;;;9.69;64.66;99811.09;4949422;28;20096;-92
2024/04/06 04:22:30;;;;;;;6.45;2.90;;;;;;;9.82;64.46;99823.31;4948841;28;20026;-91
2024/04/06 04:24:57;;;;;;;9.18;2.85;;;;;;;9.64;64.64;99811.00;4980669;28;20042;-91
2024/04/06 04:27:22;;;;;;;5.70;3.20;;;;;;;9.64;64.72;99805.63;4965108;28;20046;-90
2024/04/06 04:29:48;;;;;;;9.30;3.90;;;;;;;9.62;64.68;99806.97;4964565;28;20086;-91
2024/04/06 04:32:14;;;;;;;5.28;3.13;;;;;;;9.68;64.44;99796.00;4965176;28;20112;-92
2024/04/06 04:34:39;;;;;;;8.18;2.92;;;;;;;9.81;64.33;99802.06;4965410;28;20378;-91
2024/04/06 04:37:05;;;;;;;9.02;3.22;;;;;;;10.04;63.71;99815.22;4964090;28;20050;-92
2024/04/06 04:39:31;;;;;;;7.30;3.05;;;;;;;10.17;63.49;99818.56;4964985;28;20053;-91
2024/04/06 04:41:56;;;;;;;8.40;3.38;;;;;;;10.23;63.12;99813.00;4949082;28;20022;-91
2024/04/06 04:44:23;;;;;;;5.05;3.15;;;;;;;10.26;63.17;99812.47;4945794;28;20031;-91
2024/04/06 04:46:48;;;;;;;6.13;2.70;;;;;;;10.55;62.42;99822.16;4945607;28;20052;-90
2024/04/06 04:49:14;;;;;;;5.45;2.80;;;;;;;10.50;62.74;99801.41;4928370;28;20121;-91
2024/04/06 04:51:39;;;;;;;5.22;2.67;;;;;;;10.76;62.48;99833.91;4929048;28;20037;-93
2024/04/06 04:54:05;;;;;;;6.40;3.67;;;;;;;10.76;61.89;99809.66;4928022;28;20026;-91
2024/04/06 04:56:31;;;;;;;10.63;2.90;;;;;;;10.81;61.80;99810.53;4930019;28;20030;-91
2024/04/06 04:58:56;;;;;;;9.80;2.85;;;;;;;10.90;61.62;99803.56;4930290;28;20038;-91
2024/04/06 05:01:22;;;;;;;5.15;2.75;;;;;;;11.01;61.50;99806.31;4961211;28;20098;-93
2024/04/06 05:03:48;;;;;;;8.02;3.15;;;;;;;11.11;61.36;99801.78;4929305;28;20374;-92
2024/04/06 05:06:13;;;;;;;5.97;2.50;;;;;;;11.17;60.85;99807.22;4929088;28;20038;-92
2024/04/06 05:08:39;;;;;;;15.88;3.05;;;;;;;11.26;60.98;99813.72;4928880;28;20089;-92
2024/04/06 05:11:04;;;;;;;5.88;2.78;;;;;;;11.30;60.88;99814.84;4928162;28;20022;-92
2024/04/06 05:13:30;;;;;;;7.97;2.67;;;;;;;11.46;61.12;99816.53;4943936;28;20038;-92
2024/04/06 05:15:57;;;;;;;5.45;2.47;;;;;;;11.48;60.93;99811.69;4928819;28;20034;-90
2024/04/06 05:18:23;;;;;;;3.92;2.28;;;;;;;11.53;60.55;99800.09;4928428;28;20022;-91
2024/04/06 05:20:55;;;;;;;5.10;2.40;;;;;;;11.62;60.10;99809.31;4927072;28;20033;-91
2024/04/06 05:23:22;;;;;;;4.05;2.38;;;;;;;11.74;59.85;99806.38;4938710;29;20070;-91
2024/04/06 05:25:48;;;;;;;4.05;2.78;;;;;;;11.96;58.69;99819.69;4924679;29;20489;-90
2024/04/06 05:28:18;;;;;;;5.50;2.88;;;;;;;12.09;57.91;99823.75;4928259;28;20054;-90
2024/04/06 05:30:47;;;;;;;7.47;2.50;;;;;;;12.23;57.21;99819.47;4917975;28;20059;-91
2024/04/06 05:33:20;;;;;;;6.65;2.28;;;;;;;12.54;57.11;99839.19;4922306;29;20118;-91
2024/04/06 05:35:47;;;;;;;6.50;2.30;;;;;;;12.57;56.55;99821.63;4936544;29;20043;-91
2024/04/06 05:38:14;;;;;;;8.88;2.60;;;;;;;12.57;56.20;99818.94;4890693;29;20056;-93
2024/04/06 05:40:40;;;;;;;6.35;2.20;;;;;;;12.67;55.96;99815.41;4890788;29;20038;-90
2024/04/06 05:43:07;;;;;;;3.55;2.22;;;;;;;12.85;55.62;99820.28;4921597;29;20036;-92
2024/04/06 05:45:32;;;;;;;4.20;2.53;;;;;;;12.79;55.35;99809.75;4906203;29;20486;-92
2024/04/06 05:48:03;;;;;;;5.55;2.85;;;;;;;12.96;55.17;99825.66;4890033;29;20035;-91
2024/04/06 05:50:32;;;;;;;5.97;2.90;;;;;;;13.01;55.43;99825.63;4891201;29;20414;-93
2024/04/06 05:52:59;;;;;;;6.85;3.45;;;;;;;12.98;55.20;99812.69;4905471;29;20039;-92
2024/04/06 05:55:25;;;;;;;5.10;3.08;;;;;;;13.13;54.82;99809.94;4891487;29;20035;-93
2024/04/06 05:57:53;;;;;;;9.00;3.53;;;;;;;13.35;54.04;99820.47;4891612;29;20031;-92
2024/04/06 06:00:19;;;;;;;6.25;3.83;;;;;;;13.50;53.92;99825.00;4908052;29;20058;-92
2024/04/06 06:02:44;;;;;;;10.40;4.45;;;;;;;13.51;53.68;99813.91;4891243;29;20028;-93
2024/04/06 06:05:10;;;;;;;10.38;4.22;;;;;;;13.54;53.38;99807.13;4907757;29;20016;-92
2024/04/06 06:07:36;;;;;;;8.38;4.18;;;;;;;13.62;53.54;99817.38;4920455;29;20031;-92
2024/04/06 06:10:03;;;;;;;18.35;5.50;;;;;;;13.66;53.24;99823.84;4909301;29;20401;-93
2024/04/06 06:12:28;;;;;;;7.88;5.65;;;;;;;13.62;53.53;99817.38;4908927;29;20508;-93
2024/04/06 06:14:54;;;;;;;8.35;5.07;;;;;;;13.50;53.62;99814.19;4911014;29;20067;-96
2024/04/06 06:17:20;;;;;;;9.13;6.07;;;;;;;13.53;53.62;99810.94;4909931;29;20031;-96
2024/04/06 06:19:46;;;;;;;10.00;7.18;;;;;;;13.68;52.90;99812.75;4925821;29;20565;-96
2024/04/06 06:22:11;;;;;;;10.70;6.25;;;;;;;13.74;52.65;99820.56;4924683;29;20024;-91
2024/04/06 06:24:38;;;;;;;10.05;5.95;;;;;;;13.71;52.12;99802.16;4923386;29;20520;-90
2024/04/06 06:27:05;;;;;;;9.13;6.72;;;;;;;13.94;52.77;99821.53;4910203;29;20461;-93
2024/04/06 06:29:32;;;;;;;13.98;7.78;;;;;;;13.93;52.26;99801.78;4910812;29;20023;-94
2024/04/06 06:32:00;;;;;;;12.50;6.85;;;;;;;14.01;52.39;99789.56;4909346;29;20035;-94
2024/04/06 06:34:27;;;;;;;10.85;7.55;;;;;;;14.15;52.30;99806.78;4943047;28;20089;-92
2024/04/06 06:36:53;;;;;;;11.25;6.90;;;;;;;14.20;51.93;99797.03;4918415;28;20026;-92
2024/04/06 06:39:19;;;;;;;13.65;7.30;;;;;;;14.32;51.72;99800.19;4916123;28;20037;-92
2024/04/06 06:41:45;;;;;;;12.55;8.35;;;;;;;14.72;51.55;99823.44;4910252;29;20050;-92
2024/04/06 06:44:11;;;;;;;14.85;8.52;;;;;;;14.79;51.69;99816.88;4925334;29;20120;-92
2024/04/06 06:46:39;;;;;;;17.23;9.88;;;;;;;14.71;51.64;99799.31;4904576;29;20031;-92
2024/04/06 06:49:07;;;;;;;10.15;8.88;;;;;;;14.86;51.38;99814.66;4939757;28;20089;-96
2024/04/06 06:51:33;;;;;;;12.88;8.10;;;;;;;15.01;51.06;99816.41;4928386;28;20031;-95
2024/04/06 06:53:58;;;;;;;13.32;8.75;;;;;;;15.07;50.05;99810.63;4927403;28;20414;-94
2024/04/06 06:56:24;;;;;;;15.52;8.52;;;;;;;15.07;50.04;99802.50;4927044;28;20117;-89
2024/04/06 06:58:50;;;;;;;16.45;8.07;;;;;;;15.23;49.62;99811.28;4958311;28;20037;-90
2024/04/06 07:01:16;;;;;;;12.85;5.80;;;;;;;15.41;50.08;99817.03;4958745;28;20038;-90
2024/04/06 07:03:42;;;;;;;8.23;6.13;;;;;;;15.43;49.72;99821.06;4927274;28;20110;-90
2024/04/06 07:06:10;;;;;;;13.68;6.18;;;;;;;15.50;49.57;99812.56;4928343;28;20113;-90
2024/04/06 07:08:36;;;;;;;10.38;6.10;;;;;;;15.70;49.17;99814.25;4942496;28;20022;-92
2024/04/06 07:11:07;;;;;;;12.43;6.53;;;;;;;15.67;49.64;99815.63;4938623;29;20031;-90
2024/04/06 07:13:33;;;;;;;11.27;5.88;;;;;;;15.85;49.04;99830.34;4933486;28;20405;-89
2024/04/06 07:16:08;;;;;;;8.35;5.57;;;;;;;16.02;49.18;99829.03;4923431;29;20042;-91
2024/04/06 07:18:38;;;;;;;12.27;5.25;;;;;;;16.20;48.79;99833.66;4908570;29;20090;-91
2024/04/06 07:21:04;;;;;;;10.48;6.18;;;;;;;16.46;47.77;99825.13;4924530;29;20198;-92
2024/04/06 07:23:30;;;;;;;14.32;6.50;;;;;;;16.50;47.56;99813.38;4931685;28;20055;-92
2024/04/06 07:25:56;;;;;;;15.82;6.53;;;;;;;16.77;47.24;99820.78;4927332;28;20035;-92
2024/04/06 07:28:24;;;;;;;10.43;4.60;;;;;;;17.01;46.34;99829.94;4927891;28;20035;-92
2024/04/06 07:30:50;;;;;;;13.77;4.60;;;;;;;17.14;45.56;99815.53;4930517;28;20043;-92
2024/04/06 07:33:15;;;;;;;10.70;4.53;;;;;;;17.40;45.25;99818.56;4930672;28;20400;-91
2024/04/06 07:35:41;;;;;;;14.48;5.03;;;;;;;17.43;44.63;99807.09;4946214;28;20098;-93
2024/04/06 07:38:07;;;;;;;5.70;3.72;;;;;;;17.52;44.93;99815.34;4963528;28;20081;-93
2024/04/06 07:40:32;;;;;;;8.98;3.90;;;;;;;17.85;44.23;99837.81;4962216;28;20023;-91
2024/04/06 07:42:59;;;;;;;6.55;3.83;;;;;;;17.86;44.49;99819.56;4946977;28;20106;-90
2024/04/06 07:45:28;;;;;;;8.00;3.70;;;;;;;18.16;43.96;99837.16;4947122;28;20511;-95
2024/04/06 07:47:54;;;;;;;5.40;3.03;;;;;;;18.24;43.79;99819.25;4930351;28;20569;-92
2024/04/06 07:50:19;;;;;;;6.80;2.88;;;;;;;18.34;43.01;99829.91;4929920;28;20073;-92
2024/04/06 07:52:45;;;;;;;15.63;3.78;;;;;;;18.57;43.08;99836.16;4946101;28;20023;-93
2024/04/06 07:55:14;;;;;;;6.45;3.35;;;;;;;18.64;42.81;99813.94;4929993;28;20105;-92
2024/04/06 07:57:43;;;;;;;8.40;3.10;;;;;;;18.89;42.43;99831.59;4963866;28;20092;-92
2024/04/06 08:00:12;;;;;;;10.32;2.95;;;;;;;18.92;42.56;99815.38;4932187;28;20026;-95
2024/04/06 08:02:38;;;;;;;10.05;3.28;;;;;;;19.01;41.69;99815.44;4932206;28;20019;-94
2024/04/06 08:05:05;;;;;;;6.68;3.22;;;;;;;19.22;41.83;99828.56;4948743;28;20489;-92
2024/04/06 08:07:31;;;;;;;9.02;2.40;;;;;;;19.30;41.77;99827.75;4930110;28;20066;-93
2024/04/06 08:10:00;;;;;;;5.35;2.33;;;;;;;19.27;41.53;99823.72;4946995;28;20424;-92
2024/04/06 08:12:30;;;;;;;7.72;2.17;;;;;;;19.37;42.05;99825.38;4947503;28;20035;-93
2024/04/06 08:14:55;;;;;;;2.78;1.33;;;;;;;19.54;40.14;99827.34;4931590;28;20062;-92
2024/04/06 08:17:24;;;;;;;2.92;1.35;;;;;;;19.75;38.96;99828.41;4931110;28;20034;-92
2024/04/06 08:19:49;;;;;;;3.08;1.40;;;;;;;19.97;39.34;99832.16;4930658;28;20026;-94
2024/04/06 08:22:15;;;;;;;4.53;1.50;;;;;;;20.03;38.95;99822.66;4929707;28;20114;-90
2024/04/06 08:24:41;;;;;;;5.82;1.35;;;;;;;20.25;38.44;99835.34;4960781;28;20063;-91
2024/04/06 08:27:06;;;;;;;2.55;1.10;;;;;;;20.29;37.29;99816.38;4942122;28;20508;-90
2024/04/06 08:29:32;;;;;;;3.67;1.50;;;;;;;20.49;37.51;99831.34;4969953;28;20035;-91
2024/04/06 08:31:58;;;;;;;6.82;1.73;;;;;;;20.43;37.96;99821.69;4962223;28;20094;-92
2024/04/06 08:34:23;;;;;;;4.50;1.40;;;;;;;20.43;37.58;99819.75;4947897;29;20046;-89
2024/04/06 08:36:49;;;;;;;2.25;1.10;;;;;;;20.53;36.49;99827.63;4943043;29;20493;-92
2024/04/06 08:39:15;;;;;;;3.50;1.17;;;;;;;20.50;36.59;99811.06;4925741;28;20445;-91
2024/04/06 08:41:40;;;;;;;4.28;1.10;;;;;;;20.50;36.92;99800.94;4943186;28;20031;-93
2024/04/06 08:44:08;;;;;;;2.83;1.10;;;;;;;20.56;36.71;99794.13;4944546;28;20023;-90
2024/04/06 08:46:33;;;;;;;1.80;0.95;;;;;;;20.63;36.58;99793.69;4940704;29;20031;-92
2024/04/06 08:48:59;;;;;;;1.95;1.10;;;;;;;20.70;35.62;99810.41;4925189;29;20113;-92
2024/04/06 08:51:27;;;;;;;6.60;1.15;;;;;;;20.90;35.30;99819.06;4910454;29;20030;-90
2024/04/06 08:53:55;;;;;;;2.15;0.90;;;;;;;20.76;34.64;99817.31;4959347;29;20502;-93
2024/04/06 08:56:24;;;;;;;2.15;1.35;;;;;;;20.91;34.69;99826.94;4911539;29;20030;-94
2024/04/06 08:58:53;;;;;;;2.47;1.20;;;;;;;21.08;34.88;99828.00;4911364;29;20033;-96
2024/04/06 09:01:18;;;;;;;6.35;1.00;;;;;;;21.03;35.53;99790.66;4911338;29;20062;-91
2024/04/06 09:03:44;;;;;;;4.32;1.23;;;;;;;21.28;34.94;99816.31;4949727;28;20027;-90
2024/04/06 09:06:19;;;;;;;2.25;1.45;;;;;;;21.44;34.95;99838.53;4960870;28;20023;-91
2024/04/06 09:08:45;;;;;;;1.60;1.00;;;;;;;21.32;34.13;99800.84;4944738;28;20033;-91
2024/04/06 09:11:14;;;;;;;2.08;0.85;;;;;;;21.50;34.51;99822.69;4944390;28;20021;-91
2024/04/06 09:13:40;;;;;;;4.40;1.23;;;;;;;21.54;32.88;99813.50;4959907;28;20055;-91
2024/04/06 09:16:07;;;;;;;3.15;0.98;;;;;;;21.70;34.57;99815.66;4928463;28;20030;-91
2024/04/06 09:18:33;;;;;;;2.53;0.90;;;;;;;21.63;34.85;99794.25;4928791;28;20030;-92
2024/04/06 09:21:01;;;;;;;1.35;0.90;;;;;;;21.63;33.58;99791.50;4927812;28;20023;-92
2024/04/06 09:23:27;;;;;;;4.10;0.82;;;;;;;21.73;33.14;99779.38;4942947;28;20058;-92
2024/04/06 09:26:02;;;;;;;2.90;0.90;;;;;;;21.76;32.97;99771.25;4938046;29;20027;-93
2024/04/06 09:28:28;;;;;;;3.65;1.15;;;;;;;21.85;33.83;99771.22;4924425;28;20516;-91
2024/04/06 09:30:58;;;;;;;2.35;1.50;;;;;;;21.93;34.24;99761.31;4961618;28;20113;-91
2024/04/06 09:33:24;;;;;;;2.00;1.20;;;;;;;21.98;33.88;99761.91;4945427;28;20026;-93
2024/04/06 09:35:50;;;;;;;2.72;1.35;;;;;;;22.17;33.55;99796.28;4925674;29;20042;-90
2024/04/06 09:38:16;;;;;;;1.50;0.90;;;;;;;22.08;33.19;99763.44;4925540;29;20117;-90
2024/04/06 09:40:44;;;;;;;1.90;0.90;;;;;;;22.16;32.88;99772.72;4960491;28;20027;-92
2024/04/06 09:43:10;;;;;;;1.20;0.80;;;;;;;22.11;32.32;99772.94;4926985;29;20075;-91
2024/04/06 09:45:36;;;;;;;2.88;1.10;;;;;;;21.95;32.95;99762.56;4944228;28;20031;-90
2024/04/06 09:48:02;;;;;;;1.48;0.90;;;;;;;21.93;33.48;99756.63;4924643;29;20033;-92
2024/04/06 09:50:29;;;;;;;3.38;1.20;;;;;;;21.95;33.69;99750.81;4943283;28;20389;-93
2024/04/06 09:52:56;;;;;;;4.85;1.52;;;;;;;22.12;33.59;99755.31;4941655;29;20102;-92
2024/04/06 09:55:28;;;;;;;2.30;0.90;;;;;;;22.05;33.47;99744.91;4940821;28;20061;-92
2024/04/06 09:57:55;;;;;;;;;;;;;;;22.26;33.21;99768.78;4925828;29;20039;-92
2024/04/06 10:00:21;;;;;;;1.55;0.90;;;;;;;22.32;32.47;99757.25;4948993;29;19911;-93
2024/04/06 10:02:50;;;;;;;6.18;1.40;;;;;;;22.48;32.61;99767.63;4921923;29;20031;-94
2024/04/06 10:05:16;;;;;;;3.05;0.85;;;;;;;22.39;32.36;99746.56;4944478;28;20080;-92
2024/04/06 10:07:48;;;;;;;3.88;0.82;;;;;;;22.50;32.41;99762.59;4954767;28;20050;-91
2024/04/06 10:10:14;;;;;;;2.17;1.17;;;;;;;22.41;32.38;99743.47;4941011;29;20342;-94
2024/04/06 10:12:44;;;;;;;2.28;0.80;;;;;;;22.49;31.82;99736.28;4960232;28;20047;-93
2024/04/06 10:15:23;;;;;;;4.38;1.00;;;;;;;22.54;32.07;99753.34;4939689;29;20119;-92
2024/04/06 10:17:50;;;;;;;2.25;1.00;;;;;;;22.54;31.71;99734.13;4928631;28;20532;-92
2024/04/06 10:20:22;;;;;;;2.88;0.85;;;;;;;22.47;32.09;99750.34;4942170;28;20031;-91
2024/04/06 10:22:53;;;;;;;1.40;0.80;;;;;;;22.43;32.42;99745.88;4976536;28;20034;-90
2024/04/06 10:25:26;;;;;;;8.32;1.55;;;;;;;22.29;32.76;99732.47;4926267;29;20122;-90
2024/04/06 10:28:01;;;;;;;2.28;0.90;;;;;;;22.37;33.44;99751.59;4929838;28;20504;-91
2024/04/06 10:30:27;;;;;;;2.35;1.05;;;;;;;22.47;32.40;99739.34;4927956;28;20039;-90
2024/04/06 10:32:53;;;;;;;1.77;0.90;;;;;;;22.51;32.86;99737.53;4956133;29;20024;-90
2024/04/06 10:35:18;;;;;;;2.55;0.90;;;;;;;22.48;32.13;99713.53;4956213;29;20085;-91
2024/04/06 10:37:48;;;;;;;3.35;0.80;;;;;;;22.59;31.86;99744.09;4956938;28;20022;-91
2024/04/06 10:40:14;;;;;;;2.03;0.98;;;;;;;22.70;32.39;99739.78;4932003;29;20039;-92
2024/04/06 10:42:40;;;;;;;0.85;0.70;;;;;;;22.80;31.54;99750.28;4926703;28;20034;-90
2024/04/06 10:45:11;;;;;;;6.03;0.80;;;;;;;22.87;31.32;99751.66;4942218;28;20030;-92
2024/04/06 10:47:37;;;;;;;1.85;0.77;;;;;;;22.62;31.28;99734.34;4943989;28;20022;-90
2024/04/06 10:50:06;;;;;;;2.00;0.80;;;;;;;22.60;31.69;99723.75;4927844;28;20039;-92
2024/04/06 10:52:31;;;;;;;4.10;0.85;;;;;;;22.59;31.65;99714.69;4927054;28;20034;-91
2024/04/06 10:54:57;;;;;;;1.58;0.80;;;;;;;22.70;32.18;99712.31;4945158;28;20034;-91
2024/04/06 10:57:24;;;;;;;2.50;1.13;;;;;;;22.75;31.57;99709.34;4928219;28;20050;-90
2024/04/06 10:59:50;;;;;;;3.90;0.98;;;;;;;22.77;32.09;99723.53;4942806;28;20113;-91
2024/04/06 11:02:17;;;;;;;1.73;0.73;;;;;;;22.52;31.48;99702.69;4936962;29;20118;-91
2024/04/06 11:04:43;;;;;;;2.25;0.70;;;;;;;22.45;32.77;99702.44;4942301;29;20511;-90
2024/04/06 11:07:10;;;;;;;3.65;1.67;;;;;;;22.58;32.10;99698.56;4925194;29;20119;-90
2024/04/06 11:09:36;;;;;;;4.18;1.25;;;;;;;22.54;31.98;99694.91;4958525;29;20070;-90
2024/04/06 11:12:02;;;;;;;1.60;0.70;;;;;;;22.45;32.60;99697.72;4939577;29;20040;-92
2024/04/06 11:14:28;;;;;;;1.67;0.80;;;;;;;22.65;31.97;99696.06;4941242;29;20031;-89
2024/04/06 11:16:54;;;;;;;1.40;0.82;;;;;;;22.71;32.34;99697.44;4923042;29;20509;-90
2024/04/06 11:19:20;;;;;;;3.30;1.00;;;;;;;22.79;32.39;99690.25;4939953;29;20063;-92
2024/04/06 11:21:46;;;;;;;3.45;0.73;;;;;;;22.92;32.44;99705.56;4935889;29;20023;-91
2024/04/06 11:24:13;;;;;;;3.95;0.82;;;;;;;22.72;31.94;99685.31;4942722;29;20077;-90
2024/04/06 11:26:42;;;;;;;2.35;0.80;;;;;;;22.92;31.73;99711.06;4944562;29;20431;-94
2024/04/06 11:29:13;;;;;;;2.88;0.73;;;;;;;22.72;32.13;99682.59;4925058;29;20038;-93